createdAt,value
2023-04-24T00:01:08.569Z,93285.31
2023-04-24T00:03:36.263Z,93294.06
2023-04-24T00:06:03.858Z,93288.28
2023-04-24T00:08:30.897Z,93291.94
2023-04-24T00:10:58.055Z,93293.66
2023-04-24T00:13:25.215Z,93294.81
2023-04-24T00:15:52.237Z,93292.41
2023-04-24T00:18:19.029Z,93300.72
2023-04-24T00:20:46.136Z,93302.09
2023-04-24T00:23:12.853Z,93303.22
2023-04-24T00:25:39.951Z,93305.47
2023-04-24T00:28:06.902Z,93289.59
2023-04-24T00:30:33.650Z,93302.72
2023-04-24T00:33:00.397Z,93299.09
2023-04-24T00:35:27.090Z,93306.00
2023-04-24T00:37:53.765Z,93296.00
2023-04-24T00:40:20.544Z,93293.22
2023-04-24T00:42:47.278Z,93301.34
2023-04-24T00:45:14.492Z,93296.44
2023-04-24T00:47:43.005Z,93276.38
2023-04-24T00:50:10.288Z,93290.97
2023-04-24T00:52:37.132Z,93290.47
2023-04-24T00:55:04.201Z,93279.88
2023-04-24T00:57:31.520Z,93290.38
2023-04-24T00:59:58.832Z,93296.25
2023-04-24T01:02:26.019Z,93287.88
2023-04-24T01:04:52.978Z,93294.44
2023-04-24T01:07:22.175Z,93294.44
2023-04-24T01:09:53.157Z,93287.53
2023-04-24T01:12:20.636Z,93280.28
2023-04-24T01:14:48.512Z,93284.50
2023-04-24T01:17:16.314Z,93275.97
2023-04-24T01:19:45.940Z,93279.16
2023-04-24T01:22:15.320Z,93277.59
2023-04-24T01:24:43.103Z,93272.50
2023-04-24T01:27:12.861Z,93271.72
2023-04-24T01:29:40.153Z,93266.38
2023-04-24T01:32:07.572Z,93258.63
2023-04-24T01:34:35.021Z,93262.09
2023-04-24T01:37:02.060Z,93258.09
2023-04-24T01:39:29.650Z,93250.75
2023-04-24T01:41:57.391Z,93253.19
2023-04-24T01:44:24.611Z,93253.28
2023-04-24T01:46:51.634Z,93244.72
2023-04-24T01:49:18.845Z,93244.97
2023-04-24T01:51:45.979Z,93253.09
2023-04-24T01:54:13.037Z,93248.94
2023-04-24T01:56:44.197Z,93257.41
2023-04-24T01:59:14.129Z,93255.78
2023-04-24T02:01:40.936Z,93259.91
2023-04-24T02:04:08.995Z,93256.72
2023-04-24T02:06:36.390Z,93245.44
2023-04-24T02:09:04.045Z,93243.44
2023-04-24T02:11:31.120Z,93249.25
2023-04-24T02:13:58.699Z,93257.25
2023-04-24T02:16:26.021Z,93241.81
2023-04-24T02:18:52.793Z,93247.94
2023-04-24T02:21:19.517Z,93251.31
2023-04-24T02:23:46.239Z,93244.75
2023-04-24T02:26:13.576Z,93256.84
2023-04-24T02:28:40.361Z,93252.28
2023-04-24T02:31:07.359Z,93250.44
2023-04-24T02:33:34.336Z,93247.41
2023-04-24T02:36:01.290Z,93248.09
2023-04-24T02:38:28.025Z,93239.28
2023-04-24T02:40:54.869Z,93233.53
2023-04-24T02:43:21.719Z,93251.22
2023-04-24T02:45:48.519Z,93246.13
2023-04-24T02:48:15.208Z,93251.56
2023-04-24T02:50:41.978Z,93251.22
2023-04-24T02:53:08.680Z,93248.44
2023-04-24T02:55:35.513Z,93250.19
2023-04-24T02:58:02.412Z,93247.16
2023-04-24T03:00:29.138Z,93249.84
2023-04-24T03:02:55.938Z,93246.47
2023-04-24T03:05:22.717Z,93241.38
2023-04-24T03:07:49.443Z,93245.97
2023-04-24T03:10:16.468Z,93234.28
2023-04-24T03:12:43.131Z,93249.75
2023-04-24T03:15:10.332Z,93251.22
2023-04-24T03:17:38.094Z,93242.16
2023-04-24T03:20:06.667Z,93246.81
2023-04-24T03:22:34.744Z,93236.72
2023-04-24T03:25:03.073Z,93237.50
2023-04-24T03:27:31.719Z,93242.06
2023-04-24T03:30:04.908Z,93234.72
2023-04-24T03:32:43.172Z,93239.66
2023-04-24T03:35:13.216Z,93246.88
2023-04-24T03:37:39.818Z,93245.78
2023-04-24T03:40:38.887Z,93241.88
2023-04-24T03:43:15.550Z,93244.22
2023-04-24T03:45:42.861Z,93242.66
2023-04-24T03:48:10.426Z,93240.75
2023-04-24T03:50:37.659Z,93236.88
2023-04-24T03:53:05.370Z,93243.44
2023-04-24T03:55:39.318Z,93245.69
2023-04-24T03:58:06.972Z,93246.41
2023-04-24T04:00:34.282Z,93255.09
2023-04-24T04:03:19.930Z,93257.09
2023-04-24T04:05:47.375Z,93252.50
2023-04-24T04:08:14.135Z,93244.84
2023-04-24T04:10:40.904Z,93235.59
2023-04-24T04:13:07.654Z,93250.00
2023-04-24T04:15:35.728Z,93258.13
2023-04-24T04:18:02.569Z,93255.44
2023-04-24T04:20:29.937Z,93251.13
2023-04-24T04:22:56.684Z,93249.91
2023-04-24T04:25:35.427Z,93262.50
2023-04-24T04:28:03.431Z,93259.00
2023-04-24T04:30:33.274Z,93267.00
2023-04-24T04:33:03.647Z,93262.34
2023-04-24T04:35:31.666Z,93266.31
2023-04-24T04:37:59.862Z,93264.41
2023-04-24T04:40:36.434Z,93265.53
2023-04-24T04:43:05.743Z,93267.78
2023-04-24T04:45:41.307Z,93271.16
2023-04-24T04:48:25.990Z,93262.84
2023-04-24T04:50:52.811Z,93261.81
2023-04-24T04:53:21.717Z,93277.84
2023-04-24T04:55:48.504Z,93273.53
2023-04-24T04:58:16.951Z,93282.66
2023-04-24T05:00:45.252Z,93290.34
2023-04-24T05:03:27.068Z,93285.09
2023-04-24T05:06:00.024Z,93293.56
2023-04-24T05:08:28.832Z,93298.22
2023-04-24T05:10:56.520Z,93294.34
2023-04-24T05:15:54.549Z,93305.47
2023-04-24T05:18:21.686Z,93287.09
2023-04-24T05:20:48.966Z,93308.41
2023-04-24T05:23:15.855Z,93298.41
2023-04-24T05:25:45.157Z,93307.19
2023-04-24T05:28:13.142Z,93307.63
2023-04-24T05:30:39.912Z,93306.28
2023-04-24T05:33:07.572Z,93303.25
2023-04-24T05:35:35.907Z,93297.91
2023-04-24T05:38:02.776Z,93305.06
2023-04-24T05:40:29.617Z,93310.41
2023-04-24T05:42:56.277Z,93314.81
2023-04-24T05:45:24.902Z,93313.09
2023-04-24T05:47:53.443Z,93315.69
2023-04-24T05:50:20.225Z,93324.06
2023-04-24T05:52:47.206Z,93327.66
2023-04-24T05:55:26.323Z,93392.88
2023-04-24T05:57:54.942Z,93404.06
2023-04-24T06:00:22.710Z,93395.91
2023-04-24T06:02:58.773Z,93392.63
2023-04-24T06:05:26.290Z,93388.56
2023-04-24T06:07:53.909Z,93405.72
2023-04-24T06:10:23.469Z,93406.91
2023-04-24T06:12:50.600Z,93395.69
2023-04-24T06:15:18.240Z,93394.94
2023-04-24T06:17:58.635Z,93402.59
2023-04-24T06:20:26.662Z,93400.63
2023-04-24T06:22:53.446Z,93395.50
2023-04-24T06:25:20.408Z,93384.72
2023-04-24T06:27:47.305Z,93369.84
2023-04-24T06:30:14.157Z,93379.63
2023-04-24T06:32:41.011Z,93376.75
2023-04-24T06:35:09.199Z,93381.97
2023-04-24T06:37:35.966Z,93376.97
2023-04-24T06:40:02.931Z,93371.16
2023-04-24T06:42:29.703Z,93377.06
2023-04-24T06:44:56.329Z,93380.59
2023-04-24T06:47:23.092Z,93375.25
2023-04-24T06:49:51.882Z,93381.25
2023-04-24T06:52:18.568Z,93380.81
2023-04-24T06:54:45.434Z,93375.19
2023-04-24T06:57:12.218Z,93380.00
2023-04-24T06:59:39.169Z,93373.56
2023-04-24T07:02:05.870Z,93376.81
2023-04-24T07:04:32.881Z,93383.59
2023-04-24T07:06:59.729Z,93380.59
2023-04-24T07:09:27.077Z,93379.91
2023-04-24T07:11:54.488Z,93384.97
2023-04-24T07:14:21.694Z,93390.78
2023-04-24T07:16:48.388Z,93394.56
2023-04-24T07:19:15.182Z,93395.97
2023-04-24T07:21:42.203Z,93384.47
2023-04-24T07:24:12.644Z,93385.25
2023-04-24T07:26:40.952Z,93399.94
2023-04-24T07:29:08.341Z,93400.91
2023-04-24T07:31:35.184Z,93408.16
2023-04-24T07:34:02.184Z,93410.94
2023-04-24T07:36:29.128Z,93404.22
2023-04-24T07:38:57.426Z,93407.91
2023-04-24T07:41:25.344Z,93404.22
2023-04-24T07:43:53.544Z,93403.34
2023-04-24T07:46:21.120Z,93409.59
2023-04-24T07:48:55.801Z,93411.34
2023-04-24T07:51:33.674Z,93416.88
2023-04-24T07:54:00.334Z,93423.22
2023-04-24T07:56:28.008Z,93424.13
2023-04-24T07:58:54.794Z,93427.41
2023-04-24T08:01:21.591Z,93435.91
2023-04-24T08:03:48.621Z,93438.78
2023-04-24T08:06:15.496Z,93441.59
2023-04-24T08:08:42.160Z,93439.03
2023-04-24T08:11:08.977Z,93441.72
2023-04-24T08:13:36.119Z,93438.59
2023-04-24T08:16:02.879Z,93437.03
2023-04-24T08:18:29.751Z,93423.66
2023-04-24T08:20:57.162Z,93438.28
2023-04-24T08:23:23.860Z,93430.06
2023-04-24T08:25:50.793Z,93443.09
2023-04-24T08:28:21.151Z,93450.81
2023-04-24T08:30:48.290Z,93453.94
2023-04-24T08:33:16.102Z,93456.84
2023-04-24T08:35:42.762Z,93453.75
2023-04-24T08:38:09.416Z,93458.31
2023-04-24T08:40:37.642Z,93467.22
2023-04-24T08:43:04.522Z,93461.19
2023-04-24T08:45:31.545Z,93471.72
2023-04-24T08:47:59.520Z,93483.56
2023-04-24T08:50:26.632Z,93477.56
2023-04-24T08:52:58.025Z,93476.66
2023-04-24T08:55:26.187Z,93470.50
2023-04-24T08:57:54.396Z,93475.25
2023-04-24T09:00:22.190Z,93466.41
2023-04-24T09:02:50.994Z,93469.00
2023-04-24T09:05:20.109Z,93478.34
2023-04-24T09:07:54.298Z,93469.00
2023-04-24T09:10:22.414Z,93475.34
2023-04-24T09:12:51.642Z,93477.53
2023-04-24T09:15:20.168Z,93467.47
2023-04-24T09:17:47.558Z,93458.41
2023-04-24T09:20:14.339Z,93476.41
2023-04-24T09:22:41.313Z,93464.53
2023-04-24T09:25:10.075Z,93467.31
2023-04-24T09:27:36.903Z,93470.28
2023-04-24T09:30:04.692Z,93486.91
2023-04-24T09:32:32.743Z,93472.88
2023-04-24T09:35:16.808Z,93478.81
2023-04-24T09:37:45.662Z,93479.56
2023-04-24T09:40:21.124Z,93478.97
2023-04-24T09:43:02.036Z,93464.97
2023-04-24T09:45:30.120Z,93479.59
2023-04-24T09:47:56.843Z,93479.44
2023-04-24T09:50:24.145Z,93473.47
2023-04-24T09:53:03.368Z,93487.91
2023-04-24T09:55:30.655Z,93499.13
2023-04-24T09:58:02.190Z,93480.16
2023-04-24T10:00:30.935Z,93478.03
2023-04-24T10:03:01.921Z,93478.91
2023-04-24T10:05:33.934Z,93478.28
2023-04-24T10:08:06.404Z,93490.78
2023-04-24T10:10:35.205Z,93485.38
2023-04-24T10:13:02.395Z,93485.31
2023-04-24T10:15:29.261Z,93484.47
2023-04-24T10:17:58.548Z,93483.50
2023-04-24T10:20:30.407Z,93485.38
2023-04-24T10:22:58.686Z,93494.03
2023-04-24T10:25:31.309Z,93505.16
2023-04-24T10:28:00.675Z,93502.00
2023-04-24T10:30:29.724Z,93493.91
2023-04-24T10:32:56.980Z,93502.81
2023-04-24T10:35:27.786Z,93504.19
2023-04-24T10:38:02.446Z,93505.31
2023-04-24T10:40:34.863Z,93514.16
2023-04-24T10:43:11.469Z,93521.63
2023-04-24T10:45:39.285Z,93535.00
2023-04-24T10:48:11.934Z,93537.84
2023-04-24T10:50:48.975Z,93553.19
2023-04-24T10:53:21.347Z,93548.25
2023-04-24T10:55:53.337Z,93540.94
2023-04-24T10:58:24.713Z,93551.72
2023-04-24T11:00:59.827Z,93549.59
2023-04-24T11:03:35.364Z,93545.25
2023-04-24T11:06:03.567Z,93548.56
2023-04-24T11:08:37.853Z,93543.47
2023-04-24T11:11:11.268Z,93549.56
2023-04-24T11:13:56.504Z,93560.84
2023-04-24T11:16:47.894Z,93560.78
2023-04-24T11:19:17.629Z,93557.59
2023-04-24T11:21:58.726Z,93548.41
2023-04-24T11:24:27.212Z,93549.63
2023-04-24T11:26:59.026Z,93547.03
2023-04-24T11:29:47.194Z,93554.03
2023-04-24T11:32:19.900Z,93560.66
2023-04-24T11:34:48.707Z,93561.94
2023-04-24T11:37:16.007Z,93565.13
2023-04-24T11:39:42.794Z,93575.88
2023-04-24T11:42:16.316Z,93568.09
2023-04-24T11:44:44.022Z,93572.09
2023-04-24T11:47:10.767Z,93574.66
2023-04-24T11:49:40.798Z,93579.91
2023-04-24T11:52:07.812Z,93571.94
2023-04-24T11:54:34.981Z,93584.84
2023-04-24T11:57:05.507Z,93568.41
2023-04-24T11:59:36.748Z,93577.13
2023-04-24T12:02:03.592Z,93586.56
2023-04-24T12:04:40.183Z,93575.31
2023-04-24T12:07:07.442Z,93567.38
2023-04-24T12:09:52.656Z,93570.00
2023-04-24T12:12:19.585Z,93566.81
2023-04-24T12:15:00.327Z,93591.78
2023-04-24T12:17:31.950Z,93571.41
2023-04-24T12:20:04.687Z,93578.91
2023-04-24T12:22:54.565Z,93596.88
2023-04-24T12:25:26.502Z,93583.09
2023-04-24T12:28:03.900Z,93594.84
2023-04-24T12:30:32.076Z,93588.81
2023-04-24T12:33:01.515Z,93605.59
2023-04-24T12:35:30.345Z,93588.94
2023-04-24T12:37:56.984Z,93601.19
2023-04-24T12:40:26.684Z,93600.22
2023-04-24T12:42:54.121Z,93590.31
2023-04-24T12:45:24.420Z,93601.13
2023-04-24T12:47:51.221Z,93599.75
2023-04-24T12:50:18.103Z,93599.28
2023-04-24T12:52:44.847Z,93604.56
2023-04-24T12:55:13.065Z,93607.41
2023-04-24T12:57:41.015Z,93603.44
2023-04-24T13:00:09.595Z,93606.59
2023-04-24T13:02:36.674Z,93606.16
2023-04-24T13:05:04.141Z,93616.50
2023-04-24T13:07:30.882Z,93613.97
2023-04-24T13:09:58.760Z,93604.34
2023-04-24T13:12:26.566Z,93611.44
2023-04-24T13:14:53.809Z,93618.59
2023-04-24T13:17:20.511Z,93618.94
2023-04-24T13:19:47.471Z,93609.63
2023-04-24T13:22:14.497Z,93610.75
2023-04-24T13:24:42.467Z,93615.56
2023-04-24T13:27:10.666Z,93611.97
2023-04-24T13:29:38.210Z,93587.16
2023-04-24T13:32:04.971Z,93603.13
2023-04-24T13:34:31.973Z,93608.31
2023-04-24T13:37:00.108Z,93600.69
2023-04-24T13:39:27.640Z,93602.28
2023-04-24T13:41:54.989Z,93603.03
2023-04-24T13:44:22.521Z,93609.75
2023-04-24T13:46:52.850Z,93597.25
2023-04-24T13:49:19.892Z,93607.22
2023-04-24T13:51:46.981Z,93602.81
2023-04-24T13:54:13.933Z,93597.69
2023-04-24T13:56:43.927Z,93605.31
2023-04-24T13:59:13.376Z,93602.81
2023-04-24T14:01:40.148Z,93601.56
2023-04-24T14:04:06.986Z,93610.00
2023-04-24T14:06:33.984Z,93611.94
2023-04-24T14:09:00.676Z,93613.53
2023-04-24T14:11:27.624Z,93597.81
2023-04-24T14:13:55.541Z,93593.25
2023-04-24T14:16:22.312Z,93593.81
2023-04-24T14:18:49.086Z,93595.09
2023-04-24T14:21:15.859Z,93607.41
2023-04-24T14:23:42.952Z,93603.47
2023-04-24T14:26:09.919Z,93607.06
2023-04-24T14:28:36.899Z,93618.97
2023-04-24T14:31:03.583Z,93620.09
2023-04-24T14:33:30.258Z,93620.16
2023-04-24T14:35:57.089Z,93618.03
2023-04-24T14:38:23.780Z,93617.94
2023-04-24T14:41:05.337Z,93616.56
2023-04-24T14:43:33.735Z,93618.94
2023-04-24T14:46:00.490Z,93625.88
2023-04-24T14:48:27.158Z,93627.59
2023-04-24T14:50:53.861Z,93616.34
2023-04-24T14:53:20.828Z,93621.75
2023-04-24T14:55:47.532Z,93628.69
2023-04-24T14:58:14.245Z,93626.19
2023-04-24T15:00:40.982Z,93626.31
2023-04-24T15:03:08.561Z,93622.41
2023-04-24T15:05:39.167Z,93633.56
2023-04-24T15:08:06.771Z,93633.22
2023-04-24T15:10:34.013Z,93635.22
2023-04-24T15:13:00.852Z,93640.00
2023-04-24T15:15:27.609Z,93645.97
2023-04-24T15:17:54.267Z,93643.00
2023-04-24T15:20:21.021Z,93633.38
2023-04-24T15:22:48.356Z,93644.50
2023-04-24T15:25:15.074Z,93642.22
2023-04-24T15:27:43.578Z,93647.13
2023-04-24T15:30:11.494Z,93651.56
2023-04-24T15:32:38.884Z,93645.25
2023-04-24T15:35:11.102Z,93648.63
2023-04-24T15:37:47.636Z,93647.16
2023-04-24T15:40:16.617Z,93648.38
2023-04-24T15:42:44.022Z,93653.56
2023-04-24T15:45:11.250Z,93653.75
2023-04-24T15:47:37.919Z,93643.88
2023-04-24T15:50:05.184Z,93649.41
2023-04-24T15:52:31.842Z,93657.81
2023-04-24T15:54:58.494Z,93656.34
2023-04-24T15:57:25.749Z,93642.50
2023-04-24T15:59:52.437Z,93656.69
2023-04-24T16:02:20.676Z,93663.78
2023-04-24T16:04:49.283Z,93663.88
2023-04-24T16:07:18.293Z,93663.03
2023-04-24T16:09:45.349Z,93661.53
2023-04-24T16:12:12.637Z,93660.94
2023-04-24T16:14:39.792Z,93664.22
2023-04-24T16:17:06.902Z,93664.66
2023-04-24T16:19:36.506Z,93646.81
2023-04-24T16:22:04.758Z,93670.25
2023-04-24T16:24:31.437Z,93661.53
2023-04-24T16:26:58.202Z,93661.31
2023-04-24T16:29:24.912Z,93657.97
2023-04-24T16:31:51.934Z,93653.81
2023-04-24T16:34:18.848Z,93658.66
2023-04-24T16:36:45.560Z,93654.94
2023-04-24T16:39:12.884Z,93654.34
2023-04-24T16:41:40.321Z,93654.59
2023-04-24T16:44:07.064Z,93650.84
2023-04-24T16:46:34.299Z,93651.53
2023-04-24T16:49:01.029Z,93648.66
2023-04-24T16:51:27.896Z,93659.03
2023-04-24T16:53:54.825Z,93646.56
2023-04-24T16:56:21.634Z,93656.25
2023-04-24T16:58:48.492Z,93661.72
2023-04-24T17:01:15.421Z,93657.81
2023-04-24T17:03:42.157Z,93662.41
2023-04-24T17:06:08.984Z,93644.13
2023-04-24T17:08:35.643Z,93646.53
2023-04-24T17:11:02.278Z,93651.44
2023-04-24T17:13:28.943Z,93654.56
2023-04-24T17:15:55.745Z,93638.16
2023-04-24T17:18:22.438Z,93648.22
2023-04-24T17:20:49.116Z,93651.00
2023-04-24T17:23:15.871Z,93656.94
2023-04-24T17:25:42.735Z,93651.91
2023-04-24T17:28:21.819Z,93651.78
2023-04-24T17:30:48.511Z,93643.88
2023-04-24T17:33:15.295Z,93644.38
2023-04-24T17:35:41.972Z,93648.66
2023-04-24T17:38:08.636Z,93653.06
2023-04-24T17:40:35.319Z,93661.44
2023-04-24T17:43:01.932Z,93664.16
2023-04-24T17:45:28.586Z,93663.72
2023-04-24T17:47:56.616Z,93654.72
2023-04-24T17:50:23.321Z,93656.72
2023-04-24T17:52:50.013Z,93660.41
2023-04-24T17:55:17.127Z,93657.28
2023-04-24T17:57:43.940Z,93656.00
2023-04-24T18:00:11.384Z,93656.22
2023-04-24T18:02:38.291Z,93659.22
2023-04-24T18:05:05.602Z,93648.63
2023-04-24T18:07:32.218Z,93660.22
2023-04-24T18:09:58.843Z,93645.09
2023-04-24T18:12:25.686Z,93662.69
2023-04-24T18:14:57.302Z,93653.34
2023-04-24T18:17:33.222Z,93660.94
2023-04-24T18:19:59.897Z,93654.91
2023-04-24T18:22:26.814Z,93653.13
2023-04-24T18:24:53.614Z,93663.38
2023-04-24T18:27:20.320Z,93662.84
2023-04-24T18:29:46.977Z,93660.50
2023-04-24T18:32:13.679Z,93655.56
2023-04-24T18:34:40.333Z,93665.63
2023-04-24T18:37:07.199Z,93676.34
2023-04-24T18:39:34.035Z,93686.59
2023-04-24T18:42:01.402Z,93672.06
2023-04-24T18:44:28.038Z,93677.09
2023-04-24T18:46:54.673Z,93670.50
2023-04-24T18:49:21.351Z,93668.19
2023-04-24T18:51:53.620Z,93679.44
2023-04-24T18:54:20.949Z,93690.47
2023-04-24T18:56:47.641Z,93685.66
2023-04-24T18:59:14.388Z,93685.22
2023-04-24T19:01:41.626Z,93697.47
2023-04-24T19:04:08.364Z,93696.94
2023-04-24T19:06:35.046Z,93703.91
2023-04-24T19:09:01.862Z,93704.56
2023-04-24T19:11:28.694Z,93693.72
2023-04-24T19:13:55.401Z,93702.50
2023-04-24T19:16:22.259Z,93712.09
2023-04-24T19:18:49.211Z,93715.41
2023-04-24T19:21:16.066Z,93714.50
2023-04-24T19:23:44.495Z,93708.91
2023-04-24T19:26:11.555Z,93714.59
2023-04-24T19:28:39.316Z,93707.78
2023-04-24T19:31:06.204Z,93709.22
2023-04-24T19:33:32.800Z,93716.91
2023-04-24T19:36:00.325Z,93709.00
2023-04-24T19:38:27.718Z,93722.16
2023-04-24T19:40:54.375Z,93696.81
2023-04-24T19:43:21.037Z,93711.56
2023-04-24T19:45:48.243Z,93718.13
2023-04-24T19:48:14.910Z,93723.47
2023-04-24T19:50:43.242Z,93716.91
2023-04-24T19:53:12.315Z,93705.28
2023-04-24T19:55:39.002Z,93719.31
2023-04-24T19:58:05.657Z,93711.84
2023-04-24T20:00:32.432Z,93708.72
2023-04-24T20:02:59.268Z,93708.13
2023-04-24T20:05:26.369Z,93709.22
2023-04-24T20:07:53.139Z,93711.91
2023-04-24T20:10:19.788Z,93714.56
2023-04-24T20:12:46.509Z,93699.47
2023-04-24T20:15:13.524Z,93716.53
2023-04-24T20:17:40.184Z,93721.28
2023-04-24T20:20:07.923Z,93716.28
2023-04-24T20:22:38.760Z,93722.41
2023-04-24T20:25:10.302Z,93719.47
2023-04-24T20:27:37.064Z,93715.88
2023-04-24T20:30:04.226Z,93705.00
2023-04-24T20:32:31.568Z,93701.09
2023-04-24T20:34:58.814Z,93703.88
2023-04-24T20:37:25.423Z,93719.72
2023-04-24T20:39:52.065Z,93718.16
2023-04-24T20:42:19.563Z,93706.56
2023-04-24T20:44:46.278Z,93709.50
2023-04-24T20:47:12.888Z,93706.94
2023-04-24T20:49:39.603Z,93701.28
2023-04-24T20:52:06.610Z,93705.19
2023-04-24T20:54:33.546Z,93688.56
2023-04-24T20:57:01.840Z,93699.41
2023-04-24T20:59:28.560Z,93688.25
2023-04-24T21:01:55.256Z,93695.88
2023-04-24T21:04:22.013Z,93704.69
2023-04-24T21:06:48.662Z,93695.09
2023-04-24T21:09:15.629Z,93694.78
2023-04-24T21:11:42.418Z,93683.66
2023-04-24T21:14:09.318Z,93685.34
2023-04-24T21:16:36.613Z,93685.03
2023-04-24T21:19:03.363Z,93680.47
2023-04-24T21:21:30.024Z,93688.84
2023-04-24T21:23:56.702Z,93696.78
2023-04-24T21:26:23.360Z,93694.97
2023-04-24T21:28:50.058Z,93697.63
2023-04-24T21:31:16.674Z,93695.63
2023-04-24T21:33:43.342Z,93692.28
2023-04-24T21:36:10.066Z,93671.72
2023-04-24T21:38:37.081Z,93677.84
2023-04-24T21:41:03.951Z,93661.81
2023-04-24T21:43:50.486Z,93683.78
2023-04-24T21:46:17.691Z,93672.78
2023-04-24T21:48:44.444Z,93644.34
2023-04-24T21:51:11.297Z,93653.16
2023-04-24T21:53:38.005Z,93639.53
2023-04-24T21:56:05.000Z,93642.78
2023-04-24T21:58:31.833Z,93643.38
2023-04-24T22:00:58.509Z,93627.56
2023-04-24T22:03:25.505Z,93622.72
2023-04-24T22:05:52.311Z,93620.72
2023-04-24T22:08:19.003Z,93627.38
2023-04-24T22:10:46.136Z,93630.50
2023-04-24T22:13:12.810Z,93645.34
2023-04-24T22:15:39.570Z,93638.06
2023-04-24T22:18:06.866Z,93641.72
2023-04-24T22:20:34.067Z,93639.81
2023-04-24T22:23:01.301Z,93634.22
2023-04-24T22:25:27.962Z,93635.78
2023-04-24T22:27:54.689Z,93635.19
2023-04-24T22:30:21.450Z,93643.66
2023-04-24T22:32:48.327Z,93638.53
2023-04-24T22:35:15.223Z,93637.34
2023-04-24T22:37:42.006Z,93641.31
2023-04-24T22:40:08.899Z,93646.97
2023-04-24T22:42:35.707Z,93642.75
2023-04-24T22:45:02.577Z,93630.88
2023-04-24T22:47:29.506Z,93627.53
2023-04-24T22:49:57.876Z,93627.97
2023-04-24T22:52:24.498Z,93623.44
2023-04-24T22:54:52.296Z,93617.19
2023-04-24T22:57:19.174Z,93616.78
2023-04-24T22:59:46.161Z,93613.66
2023-04-24T23:02:12.937Z,93604.97
2023-04-24T23:04:39.834Z,93603.41
2023-04-24T23:07:06.511Z,93606.56
2023-04-24T23:09:33.660Z,93613.06
2023-04-24T23:12:01.300Z,93608.44
2023-04-24T23:14:28.255Z,93604.44
2023-04-24T23:16:54.996Z,93616.38
2023-04-24T23:19:21.709Z,93593.84
2023-04-24T23:21:49.789Z,93611.72
2023-04-24T23:24:16.752Z,93601.72
2023-04-24T23:26:43.393Z,93605.66
2023-04-24T23:29:10.134Z,93605.84
2023-04-24T23:31:36.993Z,93598.16
2023-04-24T23:34:03.894Z,93608.03
2023-04-24T23:36:31.772Z,93618.38
2023-04-24T23:38:59.711Z,93611.34
2023-04-24T23:41:26.818Z,93617.75
2023-04-24T23:43:53.542Z,93612.91
2023-04-24T23:46:20.417Z,93609.28
2023-04-24T23:48:47.443Z,93612.50
2023-04-24T23:51:14.844Z,93607.97
2023-04-24T23:53:41.750Z,93618.63
2023-04-24T23:56:08.385Z,93614.84
2023-04-24T23:58:37.129Z,93621.25
